createdAt,value
2023-05-19T00:02:20.925Z,62.92
2023-05-19T00:04:49.537Z,63.14
2023-05-19T00:07:20.880Z,62.95
2023-05-19T00:09:48.842Z,63.22
2023-05-19T00:12:17.103Z,63.15
2023-05-19T00:14:45.102Z,64.29
2023-05-19T00:17:13.117Z,63.84
2023-05-19T00:19:40.608Z,63.66
2023-05-19T00:22:08.060Z,62.62
2023-05-19T00:24:36.897Z,62.54
2023-05-19T00:27:04.724Z,62.12
2023-05-19T00:29:32.795Z,62.28
2023-05-19T00:32:00.316Z,62.98
2023-05-19T00:34:27.873Z,63.09
2023-05-19T00:36:55.332Z,65.44
2023-05-19T00:39:22.851Z,66.88
2023-05-19T00:41:51.708Z,67.32
2023-05-19T00:44:19.211Z,67.88
2023-05-19T00:46:46.724Z,68.87
2023-05-19T00:49:14.239Z,69.01
2023-05-19T00:51:42.010Z,68.30
2023-05-19T00:54:09.606Z,68.04
2023-05-19T00:56:37.147Z,68.63
2023-05-19T00:59:06.348Z,68.26
2023-05-19T01:01:33.882Z,69.21
2023-05-19T01:04:03.600Z,67.30
2023-05-19T01:06:31.084Z,67.17
2023-05-19T01:08:58.616Z,66.39
2023-05-19T01:11:26.105Z,65.73
2023-05-19T01:13:53.660Z,65.39
2023-05-19T01:16:30.630Z,67.10
2023-05-19T01:19:03.748Z,65.68
2023-05-19T01:21:58.429Z,65.31
2023-05-19T01:24:46.729Z,66.65
2023-05-19T01:27:42.749Z,66.69
2023-05-19T01:30:23.662Z,67.91
2023-05-19T01:32:54.198Z,68.20
2023-05-19T01:35:24.934Z,67.67
2023-05-19T01:37:55.394Z,67.87
2023-05-19T01:40:24.219Z,67.31
2023-05-19T01:42:56.145Z,67.35
2023-05-19T01:45:26.727Z,66.58
2023-05-19T01:47:56.618Z,67.18
2023-05-19T01:50:24.420Z,66.63
2023-05-19T01:52:52.408Z,66.38
2023-05-19T01:55:21.148Z,66.06
2023-05-19T01:58:01.538Z,66.17
2023-05-19T02:00:41.496Z,65.86
2023-05-19T02:03:22.359Z,66.52
2023-05-19T02:05:56.475Z,67.48
2023-05-19T02:08:28.146Z,68.02
2023-05-19T02:11:01.658Z,68.00
2023-05-19T02:13:34.929Z,67.66
2023-05-19T02:16:06.195Z,69.47
2023-05-19T02:18:35.259Z,68.35
2023-05-19T02:21:05.541Z,70.26
2023-05-19T02:23:33.045Z,70.08
2023-05-19T02:26:01.017Z,70.21
2023-05-19T02:28:28.582Z,70.12
2023-05-19T02:30:56.091Z,69.98
2023-05-19T02:33:28.345Z,70.90
2023-05-19T02:35:57.976Z,70.22
2023-05-19T02:38:25.736Z,71.92
2023-05-19T02:40:54.674Z,69.84
2023-05-19T02:43:22.166Z,69.17
2023-05-19T02:45:52.793Z,69.11
2023-05-19T02:48:20.330Z,69.22
2023-05-19T02:50:49.150Z,69.25
2023-05-19T02:53:16.667Z,70.41
2023-05-19T02:55:44.139Z,70.15
2023-05-19T02:58:11.750Z,70.52
2023-05-19T03:00:39.207Z,69.99
2023-05-19T03:03:06.774Z,70.07
2023-05-19T03:05:34.263Z,71.45
2023-05-19T03:08:03.087Z,71.76
2023-05-19T03:10:31.488Z,72.29
2023-05-19T03:12:59.147Z,72.35
2023-05-19T03:15:26.610Z,71.99
2023-05-19T03:17:54.239Z,72.70
2023-05-19T03:20:21.881Z,72.39
2023-05-19T03:22:49.364Z,72.90
2023-05-19T03:25:19.364Z,72.15
2023-05-19T03:27:46.849Z,70.57
2023-05-19T03:30:15.077Z,71.81
2023-05-19T03:32:42.659Z,72.08
2023-05-19T03:35:10.705Z,71.79
2023-05-19T03:37:38.166Z,71.89
2023-05-19T03:40:07.206Z,71.66
2023-05-19T03:42:36.039Z,72.34
2023-05-19T03:45:03.539Z,72.14
2023-05-19T03:47:31.704Z,71.34
2023-05-19T03:49:59.240Z,71.46
2023-05-19T03:52:26.732Z,72.27
2023-05-19T03:54:54.201Z,71.70
2023-05-19T03:57:22.461Z,72.11
2023-05-19T03:59:51.342Z,71.17
2023-05-19T04:02:18.825Z,70.80
2023-05-19T04:04:46.423Z,71.59
2023-05-19T04:07:13.968Z,72.86
2023-05-19T04:09:41.506Z,72.02
2023-05-19T04:12:09.472Z,70.92
2023-05-19T04:14:36.992Z,70.20
2023-05-19T04:17:06.165Z,71.19
2023-05-19T04:19:33.662Z,71.42
2023-05-19T04:22:01.146Z,70.89
2023-05-19T04:24:28.828Z,70.38
2023-05-19T04:26:56.674Z,69.72
2023-05-19T04:29:24.192Z,71.27
2023-05-19T04:31:54.738Z,71.09
2023-05-19T04:34:23.590Z,69.75
2023-05-19T04:36:53.199Z,69.66
2023-05-19T04:39:21.529Z,71.02
2023-05-19T04:41:49.033Z,70.71
2023-05-19T04:44:18.050Z,69.54
2023-05-19T04:46:46.029Z,69.99
2023-05-19T04:49:14.423Z,68.86
2023-05-19T04:51:43.213Z,69.80
2023-05-19T04:54:10.769Z,69.33
2023-05-19T04:56:38.324Z,68.75
2023-05-19T04:59:06.778Z,68.54
2023-05-19T05:01:34.341Z,68.24
2023-05-19T05:04:02.718Z,68.18
2023-05-19T05:06:31.532Z,68.14
2023-05-19T05:09:00.862Z,67.11
2023-05-19T05:11:29.037Z,67.84
2023-05-19T05:13:58.001Z,67.50
2023-05-19T05:16:27.004Z,66.40
2023-05-19T05:18:55.040Z,67.71
2023-05-19T05:21:23.677Z,67.14
2023-05-19T05:23:52.232Z,66.66
2023-05-19T05:26:23.061Z,65.93
2023-05-19T05:28:50.875Z,66.72
2023-05-19T05:31:18.477Z,66.23
2023-05-19T05:33:46.467Z,66.58
2023-05-19T05:36:14.627Z,65.63
2023-05-19T05:38:42.170Z,65.57
2023-05-19T05:41:09.709Z,64.69
2023-05-19T05:43:38.570Z,63.50
2023-05-19T05:46:06.313Z,63.64
2023-05-19T05:48:34.549Z,63.48
2023-05-19T05:51:02.595Z,63.60
2023-05-19T05:53:32.208Z,63.76
2023-05-19T05:56:00.421Z,64.87
2023-05-19T05:58:28.824Z,64.04
2023-05-19T06:00:58.526Z,64.02
2023-05-19T06:03:26.737Z,63.81
2023-05-19T06:05:54.370Z,64.02
2023-05-19T06:08:21.989Z,63.62
2023-05-19T06:10:49.639Z,63.19
2023-05-19T06:13:22.166Z,61.48
2023-05-19T06:15:49.752Z,60.13
2023-05-19T06:18:18.698Z,61.53
2023-05-19T06:20:46.231Z,60.78
2023-05-19T06:23:13.751Z,59.74
2023-05-19T06:25:41.461Z,59.62
2023-05-19T06:28:09.045Z,58.86
2023-05-19T06:30:37.139Z,59.74
2023-05-19T06:33:04.966Z,57.74
2023-05-19T06:35:33.869Z,58.00
2023-05-19T06:38:01.407Z,57.93
2023-05-19T06:40:28.950Z,58.39
2023-05-19T06:42:56.480Z,58.08
2023-05-19T06:45:24.633Z,57.82
2023-05-19T06:47:52.298Z,57.48
2023-05-19T06:50:19.983Z,55.41
2023-05-19T06:52:48.802Z,56.28
2023-05-19T06:55:16.294Z,56.13
2023-05-19T06:57:44.131Z,56.54
2023-05-19T07:00:15.878Z,55.09
2023-05-19T07:02:45.831Z,56.12
2023-05-19T07:05:13.524Z,54.98
2023-05-19T07:07:41.795Z,55.37
2023-05-19T07:10:12.025Z,55.61
2023-05-19T07:12:39.640Z,55.82
2023-05-19T07:15:08.185Z,55.35
2023-05-19T07:17:35.765Z,55.36
2023-05-19T07:20:06.552Z,54.49
2023-05-19T07:22:35.061Z,54.83
2023-05-19T07:25:02.549Z,54.82
2023-05-19T07:27:31.372Z,54.31
2023-05-19T07:29:59.817Z,54.04
2023-05-19T07:32:27.346Z,53.91
2023-05-19T07:34:55.021Z,53.94
2023-05-19T07:37:22.633Z,53.45
2023-05-19T07:39:50.097Z,53.93
2023-05-19T07:42:17.576Z,53.15
2023-05-19T07:44:46.479Z,53.20
2023-05-19T07:47:13.993Z,52.91
2023-05-19T07:49:41.481Z,52.08
2023-05-19T07:52:09.118Z,52.08
2023-05-19T07:54:36.631Z,52.39
2023-05-19T07:57:04.338Z,52.04
2023-05-19T07:59:32.388Z,51.79
2023-05-19T08:02:01.299Z,53.04
2023-05-19T08:04:28.886Z,51.60
2023-05-19T08:06:56.391Z,51.34
2023-05-19T08:09:23.879Z,50.93
2023-05-19T08:11:51.474Z,50.92
2023-05-19T08:14:19.485Z,50.89
2023-05-19T08:16:47.042Z,50.61
2023-05-19T08:19:16.070Z,49.75
2023-05-19T08:21:44.557Z,49.98
2023-05-19T08:24:12.456Z,50.30
2023-05-19T08:26:40.204Z,50.28
2023-05-19T08:29:07.713Z,49.25
2023-05-19T08:31:35.262Z,48.95
2023-05-19T08:34:03.407Z,48.76
2023-05-19T08:36:33.888Z,48.28
2023-05-19T08:39:01.417Z,48.56
2023-05-19T08:41:28.929Z,47.85
2023-05-19T08:43:56.466Z,47.06
2023-05-19T08:46:26.371Z,46.92
2023-05-19T08:48:58.201Z,46.40
2023-05-19T08:51:32.155Z,46.96
2023-05-19T08:54:10.061Z,46.88
2023-05-19T08:56:39.096Z,45.66
2023-05-19T08:59:08.748Z,46.01
2023-05-19T09:04:05.692Z,45.03
2023-05-19T09:06:33.313Z,45.38
2023-05-19T09:09:02.289Z,44.71
2023-05-19T09:11:30.331Z,43.71
2023-05-19T09:13:57.846Z,43.26
2023-05-19T09:16:27.897Z,43.48
2023-05-19T09:18:58.912Z,43.86
2023-05-19T09:21:31.397Z,44.52
2023-05-19T09:23:59.318Z,43.96
2023-05-19T09:26:37.455Z,42.39
2023-05-19T09:29:11.979Z,43.42
2023-05-19T09:31:39.570Z,42.42
2023-05-19T09:34:13.092Z,40.11
2023-05-19T09:36:42.103Z,41.39
2023-05-19T09:39:16.364Z,41.76
2023-05-19T09:41:45.990Z,41.53
2023-05-19T09:44:14.210Z,41.08
2023-05-19T09:46:48.750Z,40.32
2023-05-19T09:49:20.461Z,40.66
2023-05-19T09:51:50.588Z,39.21
2023-05-19T09:54:18.299Z,39.89
2023-05-19T09:56:47.140Z,39.01
2023-05-19T09:59:16.292Z,39.14
2023-05-19T10:01:46.423Z,39.84
2023-05-19T10:04:16.581Z,38.50
2023-05-19T10:06:46.113Z,39.53
2023-05-19T10:09:14.117Z,37.98
2023-05-19T10:11:42.758Z,37.71
2023-05-19T10:14:11.698Z,38.07
2023-05-19T10:16:39.879Z,37.47
2023-05-19T10:19:08.857Z,37.80
2023-05-19T10:21:36.502Z,38.16
2023-05-19T10:24:04.237Z,38.68
2023-05-19T10:26:33.640Z,39.41
2023-05-19T10:29:03.130Z,38.28
2023-05-19T10:31:34.649Z,38.64
2023-05-19T10:34:15.140Z,37.93
2023-05-19T10:36:47.489Z,38.92
2023-05-19T10:39:20.015Z,37.77
2023-05-19T10:41:54.788Z,37.44
2023-05-19T10:44:32.558Z,36.36
2023-05-19T10:47:01.564Z,37.93
2023-05-19T10:49:29.128Z,36.14
2023-05-19T10:51:57.685Z,37.39
2023-05-19T10:54:43.164Z,37.58
2023-05-19T10:57:15.665Z,36.87
2023-05-19T10:59:44.524Z,36.92
2023-05-19T11:02:41.117Z,37.13
2023-05-19T11:05:10.525Z,36.54
2023-05-19T11:07:38.207Z,37.30
2023-05-19T11:10:09.329Z,36.21
2023-05-19T11:12:44.218Z,36.44
2023-05-19T11:15:12.934Z,37.08
2023-05-19T11:17:43.337Z,37.30
2023-05-19T11:20:22.865Z,35.74
2023-05-19T11:23:06.977Z,36.24
2023-05-19T11:25:46.686Z,36.72
2023-05-19T11:28:17.230Z,36.10
2023-05-19T11:30:46.436Z,35.34
2023-05-19T11:33:15.444Z,35.80
2023-05-19T11:35:44.497Z,34.96
2023-05-19T11:38:12.405Z,36.66
2023-05-19T11:40:42.638Z,36.08
2023-05-19T11:43:10.159Z,34.60
2023-05-19T11:45:37.798Z,35.81
2023-05-19T11:48:06.933Z,35.74
2023-05-19T11:50:38.202Z,35.07
2023-05-19T11:53:05.902Z,36.34
2023-05-19T11:55:33.806Z,37.21
2023-05-19T11:58:04.707Z,36.71
2023-05-19T12:00:37.547Z,35.15
2023-05-19T12:03:05.888Z,35.67
2023-05-19T12:05:37.987Z,35.47
2023-05-19T12:08:08.705Z,34.64
2023-05-19T12:10:36.546Z,35.25
2023-05-19T12:13:04.499Z,35.34
2023-05-19T12:15:32.617Z,35.48
2023-05-19T12:18:01.977Z,33.75
2023-05-19T12:20:32.287Z,34.61
2023-05-19T12:23:01.471Z,34.56
2023-05-19T12:25:31.954Z,33.73
2023-05-19T12:28:00.582Z,33.33
2023-05-19T12:30:29.178Z,34.32
2023-05-19T12:32:57.932Z,33.71
2023-05-19T12:35:28.767Z,32.87
2023-05-19T12:37:57.746Z,33.82
2023-05-19T12:40:26.126Z,34.54
2023-05-19T12:42:58.842Z,35.02
2023-05-19T12:45:28.120Z,32.43
2023-05-19T12:47:56.517Z,33.34
2023-05-19T12:50:31.530Z,32.93
2023-05-19T12:52:59.786Z,33.44
2023-05-19T12:55:27.676Z,34.87
2023-05-19T12:57:58.013Z,34.08
2023-05-19T13:00:28.953Z,34.37
2023-05-19T13:02:59.661Z,34.89
2023-05-19T13:05:28.316Z,34.19
2023-05-19T13:08:00.189Z,32.72
2023-05-19T13:10:28.692Z,34.58
2023-05-19T13:12:58.850Z,33.92
2023-05-19T13:15:27.677Z,32.37
2023-05-19T13:17:55.912Z,33.13
2023-05-19T13:20:24.326Z,32.93
2023-05-19T13:22:53.410Z,32.82
2023-05-19T13:25:21.328Z,33.06
2023-05-19T13:27:49.622Z,31.59
2023-05-19T13:30:19.025Z,31.47
2023-05-19T13:32:47.032Z,33.00
2023-05-19T13:35:15.420Z,31.32
2023-05-19T13:37:49.344Z,30.68
2023-05-19T13:40:17.936Z,30.33
2023-05-19T13:42:45.819Z,31.08
2023-05-19T13:45:13.402Z,29.73
2023-05-19T13:47:42.460Z,30.38
2023-05-19T13:50:10.530Z,30.24
2023-05-19T13:52:37.988Z,30.50
2023-05-19T13:55:07.350Z,31.33
2023-05-19T13:57:35.315Z,30.50
2023-05-19T14:00:04.553Z,29.01
2023-05-19T14:02:32.806Z,29.43
2023-05-19T14:05:01.778Z,28.78
2023-05-19T14:07:29.295Z,30.24
2023-05-19T14:09:56.904Z,29.78
2023-05-19T14:12:33.896Z,29.62
2023-05-19T14:15:09.056Z,29.69
2023-05-19T14:17:37.344Z,29.63
2023-05-19T14:20:07.519Z,30.38
2023-05-19T14:22:35.160Z,29.08
2023-05-19T14:25:03.015Z,30.04
2023-05-19T14:27:30.548Z,30.16
2023-05-19T14:29:58.332Z,29.01
2023-05-19T14:32:28.664Z,28.62
2023-05-19T14:34:57.732Z,30.46
2023-05-19T14:37:28.813Z,29.92
2023-05-19T14:39:58.317Z,29.34
2023-05-19T14:42:26.013Z,29.33
2023-05-19T14:44:53.618Z,28.50
2023-05-19T14:47:21.277Z,29.59
2023-05-19T14:49:48.884Z,28.89
2023-05-19T14:52:17.718Z,29.53
2023-05-19T14:54:46.597Z,29.59
2023-05-19T14:57:14.235Z,28.80
2023-05-19T14:59:41.925Z,29.40
2023-05-19T15:02:09.729Z,29.25
2023-05-19T15:04:37.248Z,29.54
2023-05-19T15:07:10.396Z,30.19
2023-05-19T15:09:38.781Z,30.22
2023-05-19T15:12:07.731Z,29.57
2023-05-19T15:14:35.364Z,29.84
2023-05-19T15:17:02.887Z,30.83
2023-05-19T15:19:30.547Z,31.41
2023-05-19T15:21:58.063Z,30.42
2023-05-19T15:24:28.097Z,30.28
2023-05-19T15:26:56.072Z,30.92
2023-05-19T15:29:24.898Z,30.06
2023-05-19T15:31:52.704Z,29.89
2023-05-19T15:34:20.764Z,29.30
2023-05-19T15:36:48.423Z,29.40
2023-05-19T15:39:15.937Z,28.96
2023-05-19T15:41:43.471Z,29.36
2023-05-19T15:44:11.214Z,29.84
2023-05-19T15:46:40.220Z,31.09
2023-05-19T15:49:07.765Z,30.44
2023-05-19T15:51:35.550Z,31.62
2023-05-19T15:54:03.062Z,30.19
2023-05-19T15:56:30.589Z,31.04
2023-05-19T15:58:58.083Z,30.72
2023-05-19T16:01:26.284Z,32.34
2023-05-19T16:03:55.502Z,31.36
2023-05-19T16:06:24.512Z,32.50
2023-05-19T16:08:52.030Z,32.18
2023-05-19T16:11:20.568Z,30.77
2023-05-19T16:13:48.113Z,31.38
2023-05-19T16:16:15.761Z,31.89
2023-05-19T16:18:44.159Z,32.40
2023-05-19T16:21:13.085Z,33.71
2023-05-19T16:23:40.637Z,33.83
2023-05-19T16:26:08.129Z,33.36
2023-05-19T16:28:35.712Z,33.96
2023-05-19T16:31:03.226Z,33.55
2023-05-19T16:33:30.723Z,32.11
2023-05-19T16:35:59.732Z,33.50
2023-05-19T16:38:28.526Z,32.25
2023-05-19T16:40:56.029Z,33.65
2023-05-19T16:43:23.532Z,32.89
2023-05-19T16:45:51.026Z,33.54
2023-05-19T16:48:18.608Z,34.14
2023-05-19T16:50:48.766Z,33.46
2023-05-19T16:53:16.283Z,34.77
2023-05-19T16:55:45.127Z,33.12
2023-05-19T16:58:12.613Z,34.63
2023-05-19T17:00:40.174Z,33.70
2023-05-19T17:03:07.761Z,34.07
2023-05-19T17:05:36.132Z,35.02
2023-05-19T17:08:03.690Z,35.02
2023-05-19T17:10:31.343Z,34.45
2023-05-19T17:13:00.359Z,35.02
2023-05-19T17:15:28.026Z,34.45
2023-05-19T17:17:55.547Z,34.34
2023-05-19T17:20:23.073Z,34.22
2023-05-19T17:22:50.574Z,35.14
2023-05-19T17:25:18.287Z,33.63
2023-05-19T17:27:46.152Z,34.48
2023-05-19T17:30:15.294Z,35.76
2023-05-19T17:32:43.048Z,36.02
2023-05-19T17:35:10.911Z,36.55
2023-05-19T17:37:38.422Z,36.01
2023-05-19T17:40:07.132Z,35.30
2023-05-19T17:42:34.646Z,35.23
2023-05-19T17:45:04.227Z,35.05
2023-05-19T17:47:33.170Z,34.89
2023-05-19T17:50:00.729Z,35.31
2023-05-19T17:52:28.711Z,34.86
2023-05-19T17:54:56.725Z,34.99
2023-05-19T17:57:26.404Z,35.13
2023-05-19T17:59:54.411Z,35.66
2023-05-19T18:02:22.348Z,35.70
2023-05-19T18:04:51.862Z,35.87
2023-05-19T18:07:20.770Z,36.08
2023-05-19T18:09:51.579Z,36.04
2023-05-19T18:12:19.088Z,35.77
2023-05-19T18:14:46.602Z,36.03
2023-05-19T18:17:14.096Z,36.40
2023-05-19T18:19:41.668Z,36.75
2023-05-19T18:22:12.863Z,36.65
2023-05-19T18:24:40.369Z,36.42
2023-05-19T18:27:10.856Z,37.08
2023-05-19T18:29:38.721Z,37.55
2023-05-19T18:32:07.124Z,36.85
2023-05-19T18:34:34.654Z,37.18
2023-05-19T18:37:02.147Z,37.19
2023-05-19T18:39:31.163Z,37.44
2023-05-19T18:41:58.665Z,37.04
2023-05-19T18:44:26.154Z,37.31
2023-05-19T18:46:53.749Z,36.94
2023-05-19T18:49:21.356Z,37.25
2023-05-19T18:51:49.662Z,37.00
2023-05-19T18:54:17.172Z,37.78
2023-05-19T18:56:46.031Z,37.36
2023-05-19T18:59:13.568Z,37.17
2023-05-19T19:01:41.304Z,37.51
2023-05-19T19:04:09.053Z,38.80
2023-05-19T19:06:36.537Z,38.13
2023-05-19T19:09:04.113Z,37.46
2023-05-19T19:11:31.862Z,38.03
2023-05-19T19:14:01.395Z,38.13
2023-05-19T19:16:29.026Z,38.12
2023-05-19T19:18:56.682Z,38.26
2023-05-19T19:21:24.437Z,38.69
2023-05-19T19:23:54.101Z,38.79
2023-05-19T19:26:21.796Z,38.64
2023-05-19T19:28:49.283Z,39.35
2023-05-19T19:31:18.146Z,39.14
2023-05-19T19:33:45.765Z,38.62
2023-05-19T19:36:13.301Z,39.50
2023-05-19T19:38:40.829Z,39.46
2023-05-19T19:41:08.397Z,39.27
2023-05-19T19:43:35.890Z,39.90
2023-05-19T19:46:06.936Z,39.50
2023-05-19T19:48:36.028Z,40.59
2023-05-19T19:51:03.542Z,39.70
2023-05-19T19:53:31.096Z,40.17
2023-05-19T19:55:59.763Z,39.98
2023-05-19T19:58:28.189Z,40.51
2023-05-19T20:00:59.034Z,41.20
2023-05-19T20:03:27.211Z,40.59
2023-05-19T20:05:57.335Z,40.36
2023-05-19T20:08:25.358Z,41.39
2023-05-19T20:10:53.047Z,41.86
2023-05-19T20:13:20.934Z,42.02
2023-05-19T20:15:48.809Z,42.19
2023-05-19T20:18:16.462Z,42.63
2023-05-19T20:20:43.961Z,42.82
2023-05-19T20:23:13.220Z,43.06
2023-05-19T20:25:57.836Z,44.22
2023-05-19T20:28:26.374Z,44.35
2023-05-19T20:30:53.888Z,44.83
2023-05-19T20:33:21.400Z,44.72
2023-05-19T20:35:49.211Z,46.75
2023-05-19T20:38:18.101Z,47.52
2023-05-19T20:40:45.915Z,47.66
2023-05-19T20:43:13.521Z,47.22
2023-05-19T20:45:43.843Z,46.99
2023-05-19T20:48:11.552Z,46.37
2023-05-19T20:50:40.423Z,45.90
2023-05-19T20:53:08.070Z,46.68
2023-05-19T20:55:37.764Z,47.41
2023-05-19T20:58:05.338Z,46.49
2023-05-19T21:00:33.176Z,46.94
2023-05-19T21:03:01.381Z,47.72
2023-05-19T21:05:29.016Z,48.68
2023-05-19T21:07:56.531Z,48.69
2023-05-19T21:10:24.182Z,49.30
2023-05-19T21:12:53.043Z,49.24
2023-05-19T21:15:20.618Z,50.46
2023-05-19T21:17:48.123Z,50.50
2023-05-19T21:20:15.660Z,51.04
2023-05-19T21:22:43.106Z,51.48
2023-05-19T21:25:11.050Z,51.03
2023-05-19T21:27:39.429Z,51.56
2023-05-19T21:30:09.619Z,52.20
2023-05-19T21:32:37.133Z,51.48
2023-05-19T21:35:05.996Z,50.61
2023-05-19T21:37:33.561Z,51.26
2023-05-19T21:40:01.173Z,50.17
2023-05-19T21:42:28.683Z,50.31
2023-05-19T21:44:56.374Z,49.90
2023-05-19T21:47:25.220Z,49.72
2023-05-19T21:49:52.769Z,50.38
2023-05-19T21:52:20.452Z,50.78
2023-05-19T21:54:48.010Z,51.52
2023-05-19T21:57:15.551Z,51.57
2023-05-19T21:59:43.916Z,51.82
2023-05-19T22:02:11.545Z,51.81
2023-05-19T22:04:42.397Z,54.02
2023-05-19T22:07:09.922Z,54.00
2023-05-19T22:09:37.917Z,53.35
2023-05-19T22:12:06.389Z,54.63
2023-05-19T22:14:33.898Z,53.61
2023-05-19T22:17:01.404Z,54.56
2023-05-19T22:19:28.989Z,55.28
2023-05-19T22:22:09.612Z,55.40
2023-05-19T22:24:41.145Z,54.76
2023-05-19T22:27:09.281Z,55.07
2023-05-19T22:29:38.249Z,55.72
2023-05-19T22:32:07.525Z,55.09
2023-05-19T22:34:35.189Z,56.67
2023-05-19T22:37:04.177Z,57.13
2023-05-19T22:39:31.741Z,57.09
2023-05-19T22:41:59.274Z,58.81
2023-05-19T22:44:26.869Z,57.70
2023-05-19T22:46:54.393Z,57.49
2023-05-19T22:49:22.821Z,58.69
2023-05-19T22:51:50.867Z,58.37
2023-05-19T22:54:19.777Z,58.97
2023-05-19T22:56:48.737Z,58.01
2023-05-19T22:59:17.599Z,58.27
2023-05-19T23:01:46.419Z,57.60
2023-05-19T23:04:15.063Z,57.58
2023-05-19T23:06:42.715Z,57.23
2023-05-19T23:09:10.203Z,58.99
2023-05-19T23:11:39.121Z,59.16
2023-05-19T23:14:06.649Z,58.99
2023-05-19T23:16:34.153Z,57.96
2023-05-19T23:19:01.741Z,59.06
2023-05-19T23:21:31.188Z,59.43
2023-05-19T23:23:59.346Z,59.10
2023-05-19T23:26:27.324Z,57.86
2023-05-19T23:28:56.124Z,58.19
2023-05-19T23:31:23.642Z,58.87
2023-05-19T23:33:51.161Z,57.90
2023-05-19T23:36:19.180Z,58.43
2023-05-19T23:38:46.649Z,58.48
2023-05-19T23:41:14.099Z,58.15
2023-05-19T23:43:41.553Z,58.79
2023-05-19T23:46:10.584Z,59.61
2023-05-19T23:48:38.211Z,60.92
2023-05-19T23:51:06.050Z,60.74
2023-05-19T23:53:33.513Z,59.74
2023-05-19T23:56:01.008Z,58.19
2023-05-19T23:58:28.627Z,58.15
